sensor_id;sensor_type;location;lat;lon;timestamp;P1;durP1;ratioP1;P2;durP2;ratioP2
3491;SDS011;1760;52.480;13.422;2023-07-24T00:01:05;3.30;;;3.00;;
3491;SDS011;1760;52.480;13.422;2023-07-24T00:03:32;3.50;;;2.50;;
3491;SDS011;1760;52.480;13.422;2023-07-24T00:05:59;4.37;;;2.70;;
3491;SDS011;1760;52.480;13.422;2023-07-24T00:08:26;4.57;;;2.70;;
3491;SDS011;1760;52.480;13.422;2023-07-24T00:10:57;10.60;;;2.80;;
3491;SDS011;1760;52.480;13.422;2023-07-24T00:13:25;4.00;;;2.93;;
3491;SDS011;1760;52.480;13.422;2023-07-24T00:15:52;3.47;;;2.50;;
3491;SDS011;1760;52.480;13.422;2023-07-24T00:18:19;3.67;;;2.67;;
3491;SDS011;1760;52.480;13.422;2023-07-24T00:20:46;3.83;;;2.83;;
3491;SDS011;1760;52.480;13.422;2023-07-24T00:23:15;5.07;;;2.77;;
3491;SDS011;1760;52.480;13.422;2023-07-24T00:25:42;3.20;;;2.90;;
3491;SDS011;1760;52.480;13.422;2023-07-24T00:28:08;2.70;;;2.20;;
3491;SDS011;1760;52.480;13.422;2023-07-24T00:30:39;4.53;;;3.00;;
3491;SDS011;1760;52.480;13.422;2023-07-24T00:33:06;6.40;;;2.30;;
3491;SDS011;1760;52.480;13.422;2023-07-24T00:35:33;4.70;;;3.00;;
3491;SDS011;1760;52.480;13.422;2023-07-24T00:38:00;4.30;;;3.13;;
3491;SDS011;1760;52.480;13.422;2023-07-24T00:40:27;3.60;;;2.10;;
3491;SDS011;1760;52.480;13.422;2023-07-24T00:42:54;3.50;;;2.20;;
3491;SDS011;1760;52.480;13.422;2023-07-24T00:45:21;3.00;;;2.17;;
3491;SDS011;1760;52.480;13.422;2023-07-24T00:47:49;6.40;;;2.87;;
3491;SDS011;1760;52.480;13.422;2023-07-24T00:50:17;4.80;;;3.07;;
3491;SDS011;1760;52.480;13.422;2023-07-24T00:52:44;4.33;;;2.40;;
3491;SDS011;1760;52.480;13.422;2023-07-24T00:55:12;6.10;;;3.07;;
3491;SDS011;1760;52.480;13.422;2023-07-24T00:57:41;5.50;;;2.60;;
3491;SDS011;1760;52.480;13.422;2023-07-24T01:00:09;3.50;;;2.30;;
3491;SDS011;1760;52.480;13.422;2023-07-24T01:02:36;3.73;;;2.43;;
3491;SDS011;1760;52.480;13.422;2023-07-24T01:05:05;3.17;;;2.60;;
3491;SDS011;1760;52.480;13.422;2023-07-24T01:07:33;4.27;;;2.43;;
3491;SDS011;1760;52.480;13.422;2023-07-24T01:10:00;3.30;;;2.50;;
3491;SDS011;1760;52.480;13.422;2023-07-24T01:12:29;5.63;;;2.50;;
3491;SDS011;1760;52.480;13.422;2023-07-24T01:15:06;4.63;;;3.07;;
3491;SDS011;1760;52.480;13.422;2023-07-24T01:17:39;3.97;;;2.57;;
3491;SDS011;1760;52.480;13.422;2023-07-24T01:20:11;5.40;;;3.20;;
3491;SDS011;1760;52.480;13.422;2023-07-24T01:22:42;4.90;;;3.20;;
3491;SDS011;1760;52.480;13.422;2023-07-24T01:25:27;4.73;;;2.90;;
3491;SDS011;1760;52.480;13.422;2023-07-24T01:27:58;3.80;;;2.80;;
3491;SDS011;1760;52.480;13.422;2023-07-24T01:30:25;5.77;;;3.20;;
3491;SDS011;1760;52.480;13.422;2023-07-24T01:32:52;8.70;;;3.20;;
3491;SDS011;1760;52.480;13.422;2023-07-24T01:35:19;12.30;;;7.50;;
3491;SDS011;1760;52.480;13.422;2023-07-24T01:37:47;12.63;;;8.30;;
3491;SDS011;1760;52.480;13.422;2023-07-24T01:40:15;8.63;;;4.83;;
3491;SDS011;1760;52.480;13.422;2023-07-24T01:42:42;6.80;;;4.20;;
3491;SDS011;1760;52.480;13.422;2023-07-24T01:45:11;4.30;;;2.87;;
3491;SDS011;1760;52.480;13.422;2023-07-24T01:47:38;3.73;;;3.07;;
3491;SDS011;1760;52.480;13.422;2023-07-24T01:50:05;5.53;;;3.27;;
3491;SDS011;1760;52.480;13.422;2023-07-24T01:52:35;6.33;;;3.47;;
3491;SDS011;1760;52.480;13.422;2023-07-24T01:55:02;6.07;;;3.03;;
3491;SDS011;1760;52.480;13.422;2023-07-24T01:57:32;3.57;;;2.77;;
3491;SDS011;1760;52.480;13.422;2023-07-24T02:00:03;5.57;;;3.20;;
3491;SDS011;1760;52.480;13.422;2023-07-24T02:02:34;3.30;;;2.67;;
3491;SDS011;1760;52.480;13.422;2023-07-24T02:05:02;3.40;;;2.63;;
3491;SDS011;1760;52.480;13.422;2023-07-24T02:07:30;4.57;;;3.23;;
3491;SDS011;1760;52.480;13.422;2023-07-24T02:09:57;8.30;;;3.00;;
3491;SDS011;1760;52.480;13.422;2023-07-24T02:12:24;2.90;;;2.30;;
3491;SDS011;1760;52.480;13.422;2023-07-24T02:14:51;5.90;;;3.10;;
3491;SDS011;1760;52.480;13.422;2023-07-24T02:17:18;3.80;;;2.60;;
3491;SDS011;1760;52.480;13.422;2023-07-24T02:19:46;6.10;;;2.80;;
3491;SDS011;1760;52.480;13.422;2023-07-24T02:22:13;3.90;;;2.70;;
3491;SDS011;1760;52.480;13.422;2023-07-24T02:24:41;3.60;;;2.80;;
3491;SDS011;1760;52.480;13.422;2023-07-24T02:27:12;4.53;;;3.40;;
3491;SDS011;1760;52.480;13.422;2023-07-24T02:29:39;3.60;;;2.33;;
3491;SDS011;1760;52.480;13.422;2023-07-24T02:32:06;4.30;;;2.77;;
3491;SDS011;1760;52.480;13.422;2023-07-24T02:34:33;3.13;;;2.77;;
3491;SDS011;1760;52.480;13.422;2023-07-24T02:37:05;3.00;;;2.63;;
3491;SDS011;1760;52.480;13.422;2023-07-24T02:39:32;3.60;;;2.77;;
3491;SDS011;1760;52.480;13.422;2023-07-24T02:41:58;3.60;;;2.37;;
3491;SDS011;1760;52.480;13.422;2023-07-24T02:44:25;2.50;;;2.30;;
3491;SDS011;1760;52.480;13.422;2023-07-24T02:46:52;4.73;;;2.70;;
3491;SDS011;1760;52.480;13.422;2023-07-24T02:49:19;3.87;;;2.30;;
3491;SDS011;1760;52.480;13.422;2023-07-24T02:51:46;7.03;;;2.00;;
3491;SDS011;1760;52.480;13.422;2023-07-24T02:54:18;2.93;;;2.17;;
3491;SDS011;1760;52.480;13.422;2023-07-24T02:56:45;4.43;;;3.00;;
3491;SDS011;1760;52.480;13.422;2023-07-24T02:59:14;2.80;;;2.10;;
3491;SDS011;1760;52.480;13.422;2023-07-24T03:01:41;3.07;;;2.37;;
3491;SDS011;1760;52.480;13.422;2023-07-24T03:04:08;3.30;;;2.30;;
3491;SDS011;1760;52.480;13.422;2023-07-24T03:06:35;3.00;;;2.00;;
3491;SDS011;1760;52.480;13.422;2023-07-24T03:09:02;3.10;;;2.70;;
3491;SDS011;1760;52.480;13.422;2023-07-24T03:11:30;4.70;;;2.30;;
3491;SDS011;1760;52.480;13.422;2023-07-24T03:13:57;2.93;;;2.20;;
3491;SDS011;1760;52.480;13.422;2023-07-24T03:16:24;2.10;;;1.90;;
3491;SDS011;1760;52.480;13.422;2023-07-24T03:18:52;2.77;;;2.07;;
3491;SDS011;1760;52.480;13.422;2023-07-24T03:21:19;2.23;;;2.03;;
3491;SDS011;1760;52.480;13.422;2023-07-24T03:23:46;4.90;;;2.80;;
3491;SDS011;1760;52.480;13.422;2023-07-24T03:26:14;4.67;;;2.00;;
3491;SDS011;1760;52.480;13.422;2023-07-24T03:28:49;3.00;;;2.00;;
3491;SDS011;1760;52.480;13.422;2023-07-24T03:31:15;2.90;;;1.63;;
3491;SDS011;1760;52.480;13.422;2023-07-24T03:33:42;3.20;;;1.80;;
3491;SDS011;1760;52.480;13.422;2023-07-24T03:36:09;2.90;;;1.97;;
3491;SDS011;1760;52.480;13.422;2023-07-24T03:38:36;3.67;;;2.87;;
3491;SDS011;1760;52.480;13.422;2023-07-24T03:41:03;6.43;;;2.80;;
3491;SDS011;1760;52.480;13.422;2023-07-24T03:43:31;4.33;;;2.10;;
3491;SDS011;1760;52.480;13.422;2023-07-24T03:45:59;4.40;;;2.80;;
3491;SDS011;1760;52.480;13.422;2023-07-24T03:48:26;2.50;;;1.80;;
3491;SDS011;1760;52.480;13.422;2023-07-24T03:50:57;2.60;;;1.73;;
3491;SDS011;1760;52.480;13.422;2023-07-24T03:53:24;6.00;;;1.83;;
3491;SDS011;1760;52.480;13.422;2023-07-24T03:55:51;3.07;;;2.27;;
3491;SDS011;1760;52.480;13.422;2023-07-24T03:58:19;2.70;;;1.77;;
3491;SDS011;1760;52.480;13.422;2023-07-24T04:00:46;2.50;;;2.13;;
3491;SDS011;1760;52.480;13.422;2023-07-24T04:03:15;4.27;;;1.80;;
3491;SDS011;1760;52.480;13.422;2023-07-24T04:05:42;2.40;;;2.00;;
3491;SDS011;1760;52.480;13.422;2023-07-24T04:08:12;2.03;;;1.50;;
3491;SDS011;1760;52.480;13.422;2023-07-24T04:10:38;3.53;;;1.93;;
3491;SDS011;1760;52.480;13.422;2023-07-24T04:13:05;1.83;;;1.67;;
3491;SDS011;1760;52.480;13.422;2023-07-24T04:15:36;6.87;;;2.30;;
3491;SDS011;1760;52.480;13.422;2023-07-24T04:18:03;3.63;;;1.57;;
3491;SDS011;1760;52.480;13.422;2023-07-24T04:20:31;2.60;;;2.13;;
3491;SDS011;1760;52.480;13.422;2023-07-24T04:22:58;5.33;;;2.20;;
3491;SDS011;1760;52.480;13.422;2023-07-24T04:25:26;3.00;;;1.83;;
3491;SDS011;1760;52.480;13.422;2023-07-24T04:27:52;3.20;;;1.70;;
3491;SDS011;1760;52.480;13.422;2023-07-24T04:30:21;2.30;;;1.70;;
3491;SDS011;1760;52.480;13.422;2023-07-24T04:32:48;2.00;;;1.63;;
3491;SDS011;1760;52.480;13.422;2023-07-24T04:35:17;2.10;;;1.87;;
3491;SDS011;1760;52.480;13.422;2023-07-24T04:37:45;2.80;;;2.20;;
3491;SDS011;1760;52.480;13.422;2023-07-24T04:40:12;6.30;;;3.73;;
3491;SDS011;1760;52.480;13.422;2023-07-24T04:42:39;1.67;;;1.57;;
3491;SDS011;1760;52.480;13.422;2023-07-24T04:45:07;2.50;;;1.83;;
3491;SDS011;1760;52.480;13.422;2023-07-24T04:47:34;2.00;;;1.80;;
3491;SDS011;1760;52.480;13.422;2023-07-24T04:50:02;4.17;;;1.80;;
3491;SDS011;1760;52.480;13.422;2023-07-24T04:52:29;3.03;;;1.23;;
3491;SDS011;1760;52.480;13.422;2023-07-24T04:54:57;3.13;;;1.53;;
3491;SDS011;1760;52.480;13.422;2023-07-24T04:57:24;1.93;;;1.43;;
3491;SDS011;1760;52.480;13.422;2023-07-24T04:59:51;2.73;;;2.00;;
3491;SDS011;1760;52.480;13.422;2023-07-24T05:02:19;3.17;;;1.60;;
3491;SDS011;1760;52.480;13.422;2023-07-24T05:04:46;2.80;;;1.60;;
3491;SDS011;1760;52.480;13.422;2023-07-24T05:07:13;2.30;;;1.80;;
3491;SDS011;1760;52.480;13.422;2023-07-24T05:09:40;2.00;;;1.40;;
3491;SDS011;1760;52.480;13.422;2023-07-24T05:12:08;2.20;;;1.60;;
3491;SDS011;1760;52.480;13.422;2023-07-24T05:14:35;1.97;;;1.73;;
3491;SDS011;1760;52.480;13.422;2023-07-24T05:17:02;1.70;;;1.50;;
3491;SDS011;1760;52.480;13.422;2023-07-24T05:19:29;3.43;;;1.77;;
3491;SDS011;1760;52.480;13.422;2023-07-24T05:21:56;3.73;;;1.80;;
3491;SDS011;1760;52.480;13.422;2023-07-24T05:24:24;1.80;;;1.23;;
3491;SDS011;1760;52.480;13.422;2023-07-24T05:26:51;2.37;;;1.17;;
3491;SDS011;1760;52.480;13.422;2023-07-24T05:29:19;1.77;;;1.10;;
3491;SDS011;1760;52.480;13.422;2023-07-24T05:31:46;2.17;;;1.40;;
3491;SDS011;1760;52.480;13.422;2023-07-24T05:34:13;1.90;;;1.47;;
3491;SDS011;1760;52.480;13.422;2023-07-24T05:36:40;2.13;;;1.20;;
3491;SDS011;1760;52.480;13.422;2023-07-24T05:39:07;1.83;;;1.40;;
3491;SDS011;1760;52.480;13.422;2023-07-24T05:41:34;3.87;;;1.30;;
3491;SDS011;1760;52.480;13.422;2023-07-24T05:44:01;2.50;;;1.97;;
3491;SDS011;1760;52.480;13.422;2023-07-24T05:46:29;2.20;;;1.40;;
3491;SDS011;1760;52.480;13.422;2023-07-24T05:48:56;1.67;;;1.47;;
3491;SDS011;1760;52.480;13.422;2023-07-24T05:51:25;2.13;;;1.33;;
3491;SDS011;1760;52.480;13.422;2023-07-24T05:53:52;2.03;;;1.23;;
3491;SDS011;1760;52.480;13.422;2023-07-24T05:56:19;2.77;;;1.50;;
3491;SDS011;1760;52.480;13.422;2023-07-24T05:58:46;3.27;;;1.73;;
3491;SDS011;1760;52.480;13.422;2023-07-24T06:01:13;1.70;;;1.57;;
3491;SDS011;1760;52.480;13.422;2023-07-24T06:03:41;2.43;;;1.77;;
3491;SDS011;1760;52.480;13.422;2023-07-24T06:06:08;2.00;;;1.77;;
3491;SDS011;1760;52.480;13.422;2023-07-24T06:08:37;2.60;;;1.67;;
3491;SDS011;1760;52.480;13.422;2023-07-24T06:11:04;2.40;;;2.17;;
3491;SDS011;1760;52.480;13.422;2023-07-24T06:13:31;2.23;;;1.57;;
3491;SDS011;1760;52.480;13.422;2023-07-24T06:15:58;2.50;;;1.73;;
3491;SDS011;1760;52.480;13.422;2023-07-24T06:18:25;4.80;;;1.90;;
3491;SDS011;1760;52.480;13.422;2023-07-24T06:20:54;1.90;;;1.60;;
3491;SDS011;1760;52.480;13.422;2023-07-24T06:23:21;3.27;;;1.63;;
3491;SDS011;1760;52.480;13.422;2023-07-24T06:25:48;3.23;;;2.43;;
3491;SDS011;1760;52.480;13.422;2023-07-24T06:28:16;2.67;;;1.80;;
3491;SDS011;1760;52.480;13.422;2023-07-24T06:30:45;6.23;;;1.93;;
3491;SDS011;1760;52.480;13.422;2023-07-24T06:33:12;2.20;;;2.00;;
3491;SDS011;1760;52.480;13.422;2023-07-24T06:35:39;2.47;;;2.27;;
3491;SDS011;1760;52.480;13.422;2023-07-24T06:38:08;4.53;;;2.30;;
3491;SDS011;1760;52.480;13.422;2023-07-24T06:40:35;2.97;;;2.30;;
3491;SDS011;1760;52.480;13.422;2023-07-24T06:43:02;2.80;;;2.10;;
3491;SDS011;1760;52.480;13.422;2023-07-24T06:45:28;2.77;;;2.33;;
3491;SDS011;1760;52.480;13.422;2023-07-24T06:47:55;2.53;;;2.03;;
3491;SDS011;1760;52.480;13.422;2023-07-24T06:50:22;2.70;;;2.30;;
3491;SDS011;1760;52.480;13.422;2023-07-24T06:52:52;2.80;;;2.27;;
3491;SDS011;1760;52.480;13.422;2023-07-24T06:55:20;1.97;;;1.67;;
3491;SDS011;1760;52.480;13.422;2023-07-24T06:57:49;3.03;;;2.67;;
3491;SDS011;1760;52.480;13.422;2023-07-24T07:00:16;2.13;;;1.67;;
3491;SDS011;1760;52.480;13.422;2023-07-24T07:02:43;5.73;;;2.30;;
3491;SDS011;1760;52.480;13.422;2023-07-24T07:05:09;3.80;;;2.27;;
3491;SDS011;1760;52.480;13.422;2023-07-24T07:07:36;2.80;;;2.30;;
3491;SDS011;1760;52.480;13.422;2023-07-24T07:10:04;7.13;;;2.23;;
3491;SDS011;1760;52.480;13.422;2023-07-24T07:12:33;2.77;;;2.33;;
3491;SDS011;1760;52.480;13.422;2023-07-24T07:15:00;2.60;;;1.97;;
3491;SDS011;1760;52.480;13.422;2023-07-24T07:17:27;3.63;;;2.20;;
3491;SDS011;1760;52.480;13.422;2023-07-24T07:19:54;3.10;;;2.30;;
3491;SDS011;1760;52.480;13.422;2023-07-24T07:22:24;2.67;;;2.13;;
3491;SDS011;1760;52.480;13.422;2023-07-24T07:24:50;3.00;;;2.13;;
3491;SDS011;1760;52.480;13.422;2023-07-24T07:27:17;2.90;;;2.17;;
3491;SDS011;1760;52.480;13.422;2023-07-24T07:29:46;3.17;;;2.33;;
3491;SDS011;1760;52.480;13.422;2023-07-24T07:32:13;2.20;;;2.00;;
3491;SDS011;1760;52.480;13.422;2023-07-24T07:34:39;2.23;;;2.00;;
3491;SDS011;1760;52.480;13.422;2023-07-24T07:37:06;5.13;;;2.40;;
3491;SDS011;1760;52.480;13.422;2023-07-24T07:39:33;3.00;;;2.70;;
3491;SDS011;1760;52.480;13.422;2023-07-24T07:42:01;2.90;;;2.03;;
3491;SDS011;1760;52.480;13.422;2023-07-24T07:44:28;4.40;;;1.73;;
3491;SDS011;1760;52.480;13.422;2023-07-24T07:46:56;2.47;;;2.23;;
3491;SDS011;1760;52.480;13.422;2023-07-24T07:49:23;2.70;;;2.13;;
3491;SDS011;1760;52.480;13.422;2023-07-24T07:51:52;2.63;;;1.90;;
3491;SDS011;1760;52.480;13.422;2023-07-24T07:54:19;2.17;;;1.80;;
3491;SDS011;1760;52.480;13.422;2023-07-24T07:56:45;2.70;;;2.43;;
3491;SDS011;1760;52.480;13.422;2023-07-24T07:59:12;2.27;;;2.07;;
3491;SDS011;1760;52.480;13.422;2023-07-24T08:01:39;2.70;;;1.93;;
3491;SDS011;1760;52.480;13.422;2023-07-24T08:04:08;3.83;;;2.70;;
3491;SDS011;1760;52.480;13.422;2023-07-24T08:06:37;2.30;;;1.70;;
3491;SDS011;1760;52.480;13.422;2023-07-24T08:09:07;2.90;;;2.30;;
3491;SDS011;1760;52.480;13.422;2023-07-24T08:11:34;5.33;;;2.70;;
3491;SDS011;1760;52.480;13.422;2023-07-24T08:14:01;3.70;;;2.17;;
3491;SDS011;1760;52.480;13.422;2023-07-24T08:16:28;3.30;;;2.17;;
3491;SDS011;1760;52.480;13.422;2023-07-24T08:18:54;2.10;;;1.83;;
3491;SDS011;1760;52.480;13.422;2023-07-24T08:21:23;1.80;;;1.50;;
3491;SDS011;1760;52.480;13.422;2023-07-24T08:23:51;2.53;;;1.80;;
3491;SDS011;1760;52.480;13.422;2023-07-24T08:26:18;2.10;;;1.90;;
3491;SDS011;1760;52.480;13.422;2023-07-24T08:28:45;2.80;;;2.27;;
3491;SDS011;1760;52.480;13.422;2023-07-24T08:31:12;2.97;;;2.20;;
3491;SDS011;1760;52.480;13.422;2023-07-24T08:33:39;3.17;;;2.10;;
3491;SDS011;1760;52.480;13.422;2023-07-24T08:36:06;2.50;;;1.97;;
3491;SDS011;1760;52.480;13.422;2023-07-24T08:38:35;2.00;;;1.80;;
3491;SDS011;1760;52.480;13.422;2023-07-24T08:41:03;2.40;;;1.43;;
3491;SDS011;1760;52.480;13.422;2023-07-24T08:43:31;2.57;;;2.30;;
3491;SDS011;1760;52.480;13.422;2023-07-24T08:45:58;2.80;;;2.00;;
3491;SDS011;1760;52.480;13.422;2023-07-24T08:48:27;3.00;;;1.97;;
3491;SDS011;1760;52.480;13.422;2023-07-24T08:50:58;1.87;;;1.60;;
3491;SDS011;1760;52.480;13.422;2023-07-24T08:53:26;2.43;;;1.70;;
3491;SDS011;1760;52.480;13.422;2023-07-24T08:55:56;3.57;;;2.43;;
3491;SDS011;1760;52.480;13.422;2023-07-24T08:58:25;4.73;;;2.50;;
3491;SDS011;1760;52.480;13.422;2023-07-24T09:00:52;2.77;;;2.00;;
3491;SDS011;1760;52.480;13.422;2023-07-24T09:03:19;2.30;;;1.87;;
3491;SDS011;1760;52.480;13.422;2023-07-24T09:05:47;2.70;;;1.80;;
3491;SDS011;1760;52.480;13.422;2023-07-24T09:08:14;2.43;;;1.90;;
3491;SDS011;1760;52.480;13.422;2023-07-24T09:10:41;3.17;;;2.10;;
3491;SDS011;1760;52.480;13.422;2023-07-24T09:13:11;5.50;;;2.17;;
3491;SDS011;1760;52.480;13.422;2023-07-24T09:15:41;6.07;;;2.47;;
3491;SDS011;1760;52.480;13.422;2023-07-24T09:18:08;2.13;;;1.93;;
3491;SDS011;1760;52.480;13.422;2023-07-24T09:20:38;3.27;;;2.30;;
3491;SDS011;1760;52.480;13.422;2023-07-24T09:23:07;2.13;;;1.80;;
3491;SDS011;1760;52.480;13.422;2023-07-24T09:25:35;6.03;;;1.93;;
3491;SDS011;1760;52.480;13.422;2023-07-24T09:28:10;3.00;;;1.90;;
3491;SDS011;1760;52.480;13.422;2023-07-24T09:30:37;2.50;;;1.77;;
3491;SDS011;1760;52.480;13.422;2023-07-24T09:33:05;3.17;;;2.83;;
3491;SDS011;1760;52.480;13.422;2023-07-24T09:35:32;8.23;;;6.40;;
3491;SDS011;1760;52.480;13.422;2023-07-24T09:38:03;5.40;;;3.67;;
3491;SDS011;1760;52.480;13.422;2023-07-24T09:40:38;2.00;;;1.80;;
3491;SDS011;1760;52.480;13.422;2023-07-24T09:43:17;2.43;;;1.80;;
3491;SDS011;1760;52.480;13.422;2023-07-24T09:45:47;4.57;;;3.10;;
3491;SDS011;1760;52.480;13.422;2023-07-24T09:48:17;2.20;;;1.83;;
3491;SDS011;1760;52.480;13.422;2023-07-24T09:50:47;2.50;;;2.20;;
3491;SDS011;1760;52.480;13.422;2023-07-24T09:53:17;3.80;;;1.50;;
3491;SDS011;1760;52.480;13.422;2023-07-24T09:55:48;2.73;;;2.53;;
3491;SDS011;1760;52.480;13.422;2023-07-24T09:58:19;2.83;;;2.10;;
3491;SDS011;1760;52.480;13.422;2023-07-24T10:00:48;2.67;;;2.07;;
3491;SDS011;1760;52.480;13.422;2023-07-24T10:03:15;2.30;;;1.90;;
3491;SDS011;1760;52.480;13.422;2023-07-24T10:05:43;3.77;;;2.87;;
3491;SDS011;1760;52.480;13.422;2023-07-24T10:08:14;8.03;;;4.33;;
3491;SDS011;1760;52.480;13.422;2023-07-24T10:10:41;7.00;;;5.40;;
3491;SDS011;1760;52.480;13.422;2023-07-24T10:13:09;3.03;;;2.73;;
3491;SDS011;1760;52.480;13.422;2023-07-24T10:15:43;3.90;;;2.30;;
3491;SDS011;1760;52.480;13.422;2023-07-24T10:18:11;3.10;;;2.40;;
3491;SDS011;1760;52.480;13.422;2023-07-24T10:20:39;3.20;;;2.60;;
3491;SDS011;1760;52.480;13.422;2023-07-24T10:23:08;3.43;;;2.67;;
3491;SDS011;1760;52.480;13.422;2023-07-24T10:25:37;3.53;;;2.40;;
3491;SDS011;1760;52.480;13.422;2023-07-24T10:28:06;3.10;;;2.43;;
3491;SDS011;1760;52.480;13.422;2023-07-24T10:30:36;4.13;;;2.40;;
3491;SDS011;1760;52.480;13.422;2023-07-24T10:33:05;3.27;;;2.20;;
3491;SDS011;1760;52.480;13.422;2023-07-24T10:35:37;3.13;;;2.63;;
3491;SDS011;1760;52.480;13.422;2023-07-24T10:38:04;4.40;;;2.80;;
3491;SDS011;1760;52.480;13.422;2023-07-24T10:40:32;5.60;;;2.30;;
3491;SDS011;1760;52.480;13.422;2023-07-24T10:43:00;2.77;;;2.17;;
3491;SDS011;1760;52.480;13.422;2023-07-24T10:45:40;3.40;;;2.40;;
3491;SDS011;1760;52.480;13.422;2023-07-24T10:48:16;3.40;;;2.47;;
3491;SDS011;1760;52.480;13.422;2023-07-24T10:50:43;4.63;;;3.17;;
3491;SDS011;1760;52.480;13.422;2023-07-24T10:53:13;4.20;;;3.30;;
3491;SDS011;1760;52.480;13.422;2023-07-24T10:55:41;3.80;;;3.07;;
3491;SDS011;1760;52.480;13.422;2023-07-24T10:58:09;3.73;;;2.90;;
3491;SDS011;1760;52.480;13.422;2023-07-24T11:00:38;4.60;;;3.20;;
3491;SDS011;1760;52.480;13.422;2023-07-24T11:03:05;5.00;;;3.30;;
3491;SDS011;1760;52.480;13.422;2023-07-24T11:05:38;3.53;;;2.87;;
3491;SDS011;1760;52.480;13.422;2023-07-24T11:08:08;6.73;;;3.30;;
3491;SDS011;1760;52.480;13.422;2023-07-24T11:10:44;5.50;;;3.30;;
3491;SDS011;1760;52.480;13.422;2023-07-24T11:13:11;3.07;;;2.60;;
3491;SDS011;1760;52.480;13.422;2023-07-24T11:15:38;4.17;;;3.23;;
3491;SDS011;1760;52.480;13.422;2023-07-24T11:18:06;4.37;;;3.50;;
3491;SDS011;1760;52.480;13.422;2023-07-24T11:20:37;7.17;;;3.53;;
3491;SDS011;1760;52.480;13.422;2023-07-24T11:23:04;8.20;;;3.47;;
3491;SDS011;1760;52.480;13.422;2023-07-24T11:25:31;3.70;;;3.07;;
3491;SDS011;1760;52.480;13.422;2023-07-24T11:27:58;6.23;;;3.60;;
3491;SDS011;1760;52.480;13.422;2023-07-24T11:30:29;5.50;;;3.50;;
3491;SDS011;1760;52.480;13.422;2023-07-24T11:32:56;8.17;;;3.33;;
3491;SDS011;1760;52.480;13.422;2023-07-24T11:35:26;4.10;;;3.30;;
3491;SDS011;1760;52.480;13.422;2023-07-24T11:37:54;3.90;;;3.00;;
3491;SDS011;1760;52.480;13.422;2023-07-24T11:40:21;5.63;;;2.73;;
3491;SDS011;1760;52.480;13.422;2023-07-24T11:42:57;5.73;;;3.07;;
3491;SDS011;1760;52.480;13.422;2023-07-24T11:45:24;7.23;;;4.30;;
3491;SDS011;1760;52.480;13.422;2023-07-24T11:47:51;7.00;;;3.30;;
3491;SDS011;1760;52.480;13.422;2023-07-24T11:50:19;5.23;;;3.23;;
3491;SDS011;1760;52.480;13.422;2023-07-24T11:52:48;4.20;;;3.53;;
3491;SDS011;1760;52.480;13.422;2023-07-24T11:55:18;3.87;;;2.90;;
3491;SDS011;1760;52.480;13.422;2023-07-24T11:57:55;4.93;;;3.43;;
3491;SDS011;1760;52.480;13.422;2023-07-24T12:00:22;5.67;;;4.13;;
3491;SDS011;1760;52.480;13.422;2023-07-24T12:02:49;6.53;;;3.90;;
3491;SDS011;1760;52.480;13.422;2023-07-24T12:05:17;5.80;;;3.40;;
3491;SDS011;1760;52.480;13.422;2023-07-24T12:07:44;5.13;;;3.40;;
3491;SDS011;1760;52.480;13.422;2023-07-24T12:10:12;5.23;;;3.87;;
3491;SDS011;1760;52.480;13.422;2023-07-24T12:12:42;5.57;;;4.43;;
3491;SDS011;1760;52.480;13.422;2023-07-24T12:15:10;4.13;;;3.10;;
3491;SDS011;1760;52.480;13.422;2023-07-24T12:17:38;5.97;;;3.73;;
3491;SDS011;1760;52.480;13.422;2023-07-24T12:20:05;12.33;;;7.13;;
3491;SDS011;1760;52.480;13.422;2023-07-24T12:22:34;5.90;;;3.10;;
3491;SDS011;1760;52.480;13.422;2023-07-24T12:25:01;4.83;;;3.60;;
3491;SDS011;1760;52.480;13.422;2023-07-24T12:27:28;5.00;;;2.90;;
3491;SDS011;1760;52.480;13.422;2023-07-24T12:29:57;5.40;;;3.03;;
3491;SDS011;1760;52.480;13.422;2023-07-24T12:32:24;6.77;;;4.40;;
3491;SDS011;1760;52.480;13.422;2023-07-24T12:34:52;7.20;;;2.87;;
3491;SDS011;1760;52.480;13.422;2023-07-24T12:37:21;8.07;;;3.57;;
3491;SDS011;1760;52.480;13.422;2023-07-24T12:39:47;8.80;;;2.80;;
3491;SDS011;1760;52.480;13.422;2023-07-24T12:42:15;4.67;;;2.57;;
3491;SDS011;1760;52.480;13.422;2023-07-24T12:44:42;4.23;;;3.13;;
3491;SDS011;1760;52.480;13.422;2023-07-24T12:47:11;4.37;;;2.83;;
3491;SDS011;1760;52.480;13.422;2023-07-24T12:49:38;5.67;;;3.30;;
3491;SDS011;1760;52.480;13.422;2023-07-24T12:52:05;6.43;;;3.10;;
3491;SDS011;1760;52.480;13.422;2023-07-24T12:54:33;6.57;;;3.30;;
3491;SDS011;1760;52.480;13.422;2023-07-24T12:57:00;6.70;;;3.30;;
3491;SDS011;1760;52.480;13.422;2023-07-24T12:59:27;4.57;;;3.27;;
3491;SDS011;1760;52.480;13.422;2023-07-24T13:01:54;3.60;;;2.83;;
3491;SDS011;1760;52.480;13.422;2023-07-24T13:04:23;6.23;;;3.10;;
3491;SDS011;1760;52.480;13.422;2023-07-24T13:06:50;3.60;;;3.23;;
3491;SDS011;1760;52.480;13.422;2023-07-24T13:09:17;3.70;;;2.83;;
3491;SDS011;1760;52.480;13.422;2023-07-24T13:11:45;3.77;;;3.20;;
3491;SDS011;1760;52.480;13.422;2023-07-24T13:14:16;4.50;;;2.80;;
3491;SDS011;1760;52.480;13.422;2023-07-24T13:16:43;4.13;;;3.00;;
3491;SDS011;1760;52.480;13.422;2023-07-24T13:19:10;3.20;;;2.50;;
3491;SDS011;1760;52.480;13.422;2023-07-24T13:21:38;3.83;;;2.87;;
3491;SDS011;1760;52.480;13.422;2023-07-24T13:24:05;3.97;;;2.57;;
3491;SDS011;1760;52.480;13.422;2023-07-24T13:26:32;4.37;;;3.00;;
3491;SDS011;1760;52.480;13.422;2023-07-24T13:28:59;3.53;;;2.67;;
3491;SDS011;1760;52.480;13.422;2023-07-24T13:31:26;3.37;;;2.47;;
3491;SDS011;1760;52.480;13.422;2023-07-24T13:33:54;4.93;;;2.57;;
3491;SDS011;1760;52.480;13.422;2023-07-24T13:36:21;3.90;;;2.40;;
3491;SDS011;1760;52.480;13.422;2023-07-24T13:38:49;4.77;;;2.60;;
3491;SDS011;1760;52.480;13.422;2023-07-24T13:41:17;4.17;;;2.50;;
3491;SDS011;1760;52.480;13.422;2023-07-24T13:43:44;5.90;;;3.00;;
3491;SDS011;1760;52.480;13.422;2023-07-24T13:46:11;5.40;;;2.63;;
3491;SDS011;1760;52.480;13.422;2023-07-24T13:48:39;3.23;;;2.90;;
3491;SDS011;1760;52.480;13.422;2023-07-24T13:51:06;6.73;;;2.50;;
3491;SDS011;1760;52.480;13.422;2023-07-24T13:53:33;3.83;;;2.47;;
3491;SDS011;1760;52.480;13.422;2023-07-24T13:56:04;4.00;;;3.00;;
3491;SDS011;1760;52.480;13.422;2023-07-24T13:58:31;3.63;;;2.30;;
3491;SDS011;1760;52.480;13.422;2023-07-24T14:00:58;3.80;;;2.47;;
3491;SDS011;1760;52.480;13.422;2023-07-24T14:03:25;3.40;;;2.50;;
3491;SDS011;1760;52.480;13.422;2023-07-24T14:05:54;6.30;;;3.50;;
3491;SDS011;1760;52.480;13.422;2023-07-24T14:08:23;4.97;;;3.70;;
3491;SDS011;1760;52.480;13.422;2023-07-24T14:10:51;5.13;;;3.40;;
3491;SDS011;1760;52.480;13.422;2023-07-24T14:13:19;5.50;;;2.80;;
3491;SDS011;1760;52.480;13.422;2023-07-24T14:15:46;5.00;;;2.73;;
3491;SDS011;1760;52.480;13.422;2023-07-24T14:18:13;4.57;;;2.90;;
3491;SDS011;1760;52.480;13.422;2023-07-24T14:20:40;4.97;;;3.37;;
3491;SDS011;1760;52.480;13.422;2023-07-24T14:23:12;3.67;;;3.23;;
3491;SDS011;1760;52.480;13.422;2023-07-24T14:25:39;6.23;;;3.20;;
3491;SDS011;1760;52.480;13.422;2023-07-24T14:28:06;5.90;;;3.10;;
3491;SDS011;1760;52.480;13.422;2023-07-24T14:30:34;3.23;;;2.63;;
3491;SDS011;1760;52.480;13.422;2023-07-24T14:33:01;10.73;;;3.10;;
3491;SDS011;1760;52.480;13.422;2023-07-24T14:35:28;6.53;;;3.43;;
3491;SDS011;1760;52.480;13.422;2023-07-24T14:37:59;5.70;;;3.90;;
3491;SDS011;1760;52.480;13.422;2023-07-24T14:40:26;5.30;;;3.23;;
3491;SDS011;1760;52.480;13.422;2023-07-24T14:42:53;6.50;;;3.27;;
3491;SDS011;1760;52.480;13.422;2023-07-24T14:45:20;4.83;;;3.33;;
3491;SDS011;1760;52.480;13.422;2023-07-24T14:47:48;8.87;;;4.30;;
3491;SDS011;1760;52.480;13.422;2023-07-24T14:50:15;5.40;;;3.40;;
3491;SDS011;1760;52.480;13.422;2023-07-24T14:52:42;4.43;;;3.23;;
3491;SDS011;1760;52.480;13.422;2023-07-24T14:55:11;5.03;;;3.90;;
3491;SDS011;1760;52.480;13.422;2023-07-24T14:57:38;4.93;;;3.37;;
3491;SDS011;1760;52.480;13.422;2023-07-24T15:00:06;4.37;;;3.53;;
3491;SDS011;1760;52.480;13.422;2023-07-24T15:02:33;4.20;;;2.90;;
3491;SDS011;1760;52.480;13.422;2023-07-24T15:05:02;4.80;;;3.73;;